Timeline UpdatesTrip UpdatesNews PostsPvt PostsTravel TipsAdmin PostsConv PostsFollowed PostsChat RequestsBlog PostsPNR Posts

Disclaimer
Search
 
 
Sun Apr 20, 2014 21:26:01 ISTHomeTrainsΣChainsAtlasPNRForumGalleryNewsFAQTripsMembersLoginFeedback
No Recent News for this Train
Other Trains in the News **new
Latest...
Changed as 18110-slip
Wed Mar 26, 2014 (11:46PM)
⇐ Return Journey: Train# 18101

18102⇒/Jammu Tawi -Tatanagar MURI Express

TRAIN IS CANCELLED
Change Departure Station:
Change Arrival Station:
Post a Train Travel TipPost a Train Travel Tip **new
Post a Comment/Question/Picture/VideoPost a Comment/Question/Picture/Video
Pantry/Catering
✓ Pantry Car Avbl
✓ Catering Avbl
pantry car is available from jammu tawi to muri.at the...
Read more...
muri,the tatanagar side is bifurcated from rourkela side...; PC AVBL b/w JAT-MURI
Loco/Rake Reversals
ASR/Amritsar Junction (5); PTK/Pathankot Junction (4);
RSA - Rake Sharing
Rake/Coach Composition
SLR-B2-ST7-ST8-ST9-S109-ST11-GEN-GEN-SLR
Loco
JAT-ASR: LDH WDM-2/3A ASR-ALD: WAP-1/7 GZB or CNB WAP-4 ALD-BRKA: WDM-2/3A PTRU BRKA-TATA:...
Read more...
WAM-4 TATA Author: South Eastern Railways Fan; Entry:532628
News    PNR    Forum    Time-Table    Availability    Fare Chart    Map    Arr/Dep History    Trips    Gallery    ΣChains    X/O    Timeline    
Travel Time: 7h 20m    8 halts    Distance: 276 km    Avg Speed: 37 km/hr
Type: Mail/Express
Zone: SER/South Eastern
Departs @ 03:00
Platform# ???
SMTWTFS
Latehar/LTHR 
Arrives @ 10:20
Platform# 5
SMTWTFS
Tatanagar Junction/TATA 

8 halts. 38 intermediate Stations between Latehar and Tatanagar Junction

Show ALL intermediate Stations  Show Old Time-Table

#CodeStation NameX/OArrivesAvgDepartsAvgHaltPFDay#KmSpeedElevZoneAddress
1JATJammu Tawi (3)  -14:30-11-1749.967337mNRJammu 180002, Jammu and Kashmir
2VJPJVijaypur Jammu (2)  14:49-14:50-1m21-1728.668353mNRdistt. samba, Jammu and Kashmir
3SMBXSamba (2)  15:00-15:02-2m11-1717.263365mNRDist. Samba, Jammu and Kashmir
4HRNRHira Nagar (2)  15:16-15:18-2m21-1702.464380mNRHiranagar, Jammu and Kashmir
5KTHUKathua (2)  15:45-15:47-2m--1-1673.637396mNRdistt. kathua, Jammu and Kashmir
6PTKPathankot Junction (4)16:25-16:45-20m11-1650.238331mNRnear ISBT, Punjab
7DNNDina Nagar (2)  17:23-17:25-2m--1-1625.948273mNRDinanagar, Punjab
8GSPGurdaspur (2)  17:39-17:41-2m--1-1614.870265mNRGurdaspur, Punjab
9DHWDhariwal (1)  17:53-17:55-2m11-1600.856259mNRDhariwal, Punjab
10BATBatala Junction (2)  18:15-18:17-2m--1-1582.144250mNRBatala, Punjab
11ASRAmritsar Junction (5)19:10-19:35-25m21-1543.177233mNRAmritsar 143002, Punjab
12JNLJandiala (2)  19:50-19:52-2m21-1523.980238mNRJandiala, Punjab
13BEASBeas Junction (2)  20:10-20:12-2m21-1500.072238mNRBeas, Punjab
14JUCJalandhar City Junction (5)  20:42-20:50-8m21-1463.921239mNRJalandhar 144001, Punjab
15JRCJalandhar Cantt. Junction (3)  21:04-21:06-2m21-1459.165239mNRNear Rama Mandi, Punjab
16PGWPhagwara Junction (3)  21:21-21:23-2m11-1442.875245mNRPhagwara, Punjab
17PHRPhillaur Junction (3)  21:41-21:43-2m11-1420.265246mNRPhillaur, Punjab
18LDHLudhiana Junction (7)  21:55-22:05-10m11-1407.155246mNRLudhiana 141001, Punjab
19RPJRajpura Junction (3)  23:38-23:40-2m21-1321.647272mNRNH-1, Punjab
20UBCAmbala City (3)  00:06-00:08-2m12-1301.121273mNRNH-1, Haryana
21UMBAmbala Cantt. Junction (7)  00:30-00:40-10m22-1293.563278mNRAmbala 133001, Haryana
22SHDMShahbad Markanda (2)  00:59-01:01-2m12-1273.658267mNRShahabad Markanda, Haryana
23KKDEKurukshetra Junction (3)  01:24-01:26-2m--2-1251.451260mNRKurukshetra, Haryana
24KUNKarnal (3)  02:05-02:07-2m12-1218.350253mNRKarnal, Haryana
25PNPPanipat Junction (5)  02:48-02:50-2m22-1183.982235mNRPanipat, Haryana
26SNPSonipat (3)  03:23-03:25-2m--2-1138.855225mNRSonipat, Haryana
27SZMDelhi Sabzi Mandi (2)  04:09-04:11-2m--2-1098.49220mNRGulabi Bagh, Delhi NCT
28DLIOld Delhi Junction (16)  04:30-04:55-25m132-1095.430219mNRNear Chandni Chowk Metro Station, Delhi NCT
29GZBGhaziabad Junction (6)  05:35-05:37-2m22-1075.472217mNRGhaziabad, Uttar Pradesh
30CHLChola (3)  06:17-06:19-2m--2-1027.258204mNCRTahsil Bulandshahar, Uttar Pradesh
31KRJKhurja Junction (4)  06:34-06:37-3m--2-1012.787199mNCRBulandshahr, Uttar Pradesh
32ALJNAligarh Junction (4)  07:07-07:12-5m22-969.282192mNCRAligarh, Uttar Pradesh
33HRSHathras Junction (3)  07:34-07:39-5m12-939.086183mNCRMahamaya Nagar(05722-242803), Uttar Pradesh
34JLSJalesar Road (1)  07:53-07:55-2m12-918.944172mNCRMDR 106W, Uttar Pradesh
35TDLTundla Junction (4)  08:33-08:38-5m32-891.171167mNCRDistt.Firozabad, Uttar Pradesh
36FZDFirozabad (4)  08:52-08:54-2m22-874.575164mNCRFirozabad, Uttar Pradesh
37SKBShikohabad Junction (4)  09:10-09:12-2m22-854.681166mNCRDistrict Firozabad, Uttar Pradesh
38ETWEtawah (5)  09:53-09:55-2m32-799.260154mNCRDistt. Etawah, Uttar Pradesh
39BNTBharthana (3)  10:15-10:17-2m--2-779.484147mNCRBharthana, Uttar Pradesh
40PHDPhaphund (4)  10:43-10:45-2m--2-743.174146mNCRdist. Auraiya, Uttar Pradesh
41JJKJhinjhak (3)  11:01-11:03-2m22-723.271140mNCRAuraiya, Uttar Pradesh
42RURARura (4)  11:19-11:21-2m--2-704.242137mNCRJhinjhak, Uttar Pradesh
43PNKPanki (3)  12:08-12:10-2m--2-671.423129mNCRKANPUR-208 020, Uttar Pradesh
44CNBKanpur Central (10)  12:40-12:50-10m--2-659.980128mNCRKanpur, Uttar Pradesh
45FTPFatehpur (3)  13:48-13:50-2m--2-582.370120mNCRFatehpur, Uttar Pradesh
46ALDAllahabad Junction (10)15:30-15:55-25m62-465.556100mNCRAllahabad 211003, Uttar Pradesh
47MJAMeja Road (4)  16:36-16:38-2m--2-427.16994mNCRDistrict Allahabad, Uttar Pradesh
48BDLVindhyachal (3)  17:16-17:18-2m--2-383.32988mNCRMirzapur, Uttar Pradesh
49MZPMirzapur (3)  17:33-17:35-2m--2-376.05488mNCRMirzapur, Uttar Pradesh
50CARChunar Junction (5)  18:10-18:15-5m52-344.74885mNCRChunar Junction, Uttar Pradesh
51RBGJRoberts Ganj (1)  19:51-19:53-2m12-268.719318mNCRRobertsganj, Uttar Pradesh
52CUKChurk (1)  20:08-20:10-2m12-263.913316mNCRState Highway 14, Uttar Pradesh
53CPUChopan (3)  21:50-22:00-10m32-242.245194mECRSH 5A Sonebhadra, Uttar Pradesh
54RNQRenukut (3)  22:56-22:58-2m12-200.467310mECRSonbhadra, Uttar Pradesh
55DXNDuddhinagar  23:17-23:19-2m--2-179.359250mECRSonebhadra, Uttar Pradesh
56WDMWyndhamGanj (1)  23:42-23:44-2m12-156.829243mECRSonebhadra, Uttar Pradesh
57NUQNagar Untari (1)  00:08-00:10-2m13-145.044248mECRGarhwa, Jharkhand
58GHQGarhwa (1)  00:56-00:58-2m13-111.050211mECRGarhwa, Jharkhand
59GHDGarhwa Road Junction (3)  01:10-01:15-5m--3-101.056188mECRPalamu, Jharkhand
60DTODaltonGanj (3)  01:51-01:56-5m23-67.669234mECR230812, Jharkhand
61BRWDBarwadih Junction (3)  02:20-02:25-5m--3-40.273295mECRDist. Latehar, Jharkhand
62LTHR»Latehar (2)»  02:58-03:00-2m--30.059381mECRLatehar, Jharkhand
63TORITori (2)  03:33-03:35-2m--332.481515mECRChandwa, Jharkhand
64KLREKhalari (3)  03:56-03:58-2m--360.750459mECRKhelari, Jharkhand
65RAYRay (2)04:09-04:11-2m--369.823447mECRRanchi, Jharkhand
66PTRUPatratu (3)  05:23-05:25-2m--396.944373mECRDistt: Ramgarh, Jharkhand
67BRKABarkakana Junction (4)05:50-06:10-20m--3115.232341mECR0653-255225, Jharkhand
68RMTRamgarh Cantt. (1)  06:20-06:25-5m13120.645352mSERRamgarh District, Jharkhand
69MURIMuri Junction (3)07:35-08:10-35m33173.654257mSER06522-222444, Jharkhand
70CNIChandil Junction (4)  09:25-09:27-2m33241.139178mSERChandil, Jharkhand
71TATA•Tatanagar Junction (5)•  10:20--53276.0-164mSER91-657-2423026, Jharkhand
Scroll to Top
Scroll to Bottom